Terminal Aerodrome Forecast
Issued by NWS Mt. Holly, NJ

Current Version | Previous Version | Text Only | Print | Product List | Glossary On
Versions: 1 2 3 4 5 6 7 8 9 10 11 12 13 14 15 16 17 18 19 20 21 22 23 24 25 26 27 28 29 30 31 32 33 34 35 36 37 38 39 40 41 42 43 44 45 46 47
277
FTAK31 PANC 251425 AAB
TAFABE
TAF AMD
PABE 251425Z 2514/2612 18020G30KT 5SM -SHSN SCT005 OVC035
      WS020/21045KT
      TEMPO 2514/2518 2SM -SN BR BKN005
     FM260000 19023KT 1/2SM SN SCT002 OVC008 WS020/22055KT
     FM260900 20015KT P6SM -SHSN SCT008 BKN010=

USA.gov is the U.S. government's official web portal to all federal, state and local government web resources and services.